Terminal Aerodrome Forecast
Issued by NWS Binghamton, NY

Home | Current Version | Previous Version | Text Only | Print | Product List | Glossary On
Versions: 1 2 3 4 5 6 7 8 9 10 11 12 13 14 15 16 17 18
000
FTUS41 KBGM 271130
TAFAVP
TAF
KAVP 271130Z 2712/2812 VRB05KT P6SM FEW025 BKN200
     FM271400 22008KT P6SM BKN035 BKN100
     FM271800 22007KT P6SM -SHRA OVC050
      TEMPO 2718/2722 3SM TSRA BR BKN050CB
     FM272300 22005KT P6SM BKN060
     FM280100 22005KT P6SM BKN200
      TEMPO 2808/2812 3SM BR=

USA.gov is the U.S. government's official web portal to all federal, state and local government web resources and services.